This is the latest recevied weather packets stored in our database for station/object IK0TIX. If no packets are shown the sender has not sent any weather packets the latest 10 day(s).
| Time | Temp. | Humidity | Pressure | Rain* | Wind** | Luminosity | Snow |
|---|---|---|---|---|---|---|---|
| 1777801790 | 22.22° C | 45% | 1021.2 hPa | 0 mm | - | - | - |
| 1777801189 | 22.78° C | 43% | 1021.3 hPa | 0 mm | - | - | - |
| 1777796987 | 19.44° C | 55% | 1021.8 hPa | 0 mm | - | - | - |
| 1777796391 | 19.44° C | 57% | 1021.8 hPa | 0 mm | - | - | - |
| 1777795188 | 18.89° C | 61% | 1021.9 hPa | 0 mm | - | - | - |
| 1777794885 | 18.89° C | 61% | 1021.9 hPa | 0 mm | - | - | - |
| 1777793705 | 17.22° C | 64% | 1022 hPa | 0 mm | - | - | - |
| 1777787407 | 13.33° C | 71% | 1022.1 hPa | 0 mm | - | - | - |
| 1777787104 | 13.33° C | 71% | 1022 hPa | 0 mm | - | - | - |
| 1777785582 | 12.78° C | 71% | 1021.9 hPa | 0 mm | - | - | - |
| 1777785274 | 12.78° C | 70% | 1021.9 hPa | 0 mm | - | - | - |
| 1777784681 | 12.78° C | 70% | 1021.8 hPa | 0 mm | - | - | - |
| 1777784101 | 12.78° C | 71% | 1021.8 hPa | 0 mm | - | - | - |
| 1777783772 | 12.78° C | 73% | 1021.8 hPa | 0 mm | - | - | - |
| 1777783194 | 12.78° C | 72% | 1021.7 hPa | 0 mm | - | - | - |
| 1777782870 | 12.78° C | 73% | 1021.7 hPa | 0 mm | - | - | - |
| 1777781983 | 13.33° C | 73% | 1021.7 hPa | 0 mm | - | - | - |
| 1777781709 | 13.33° C | 74% | 1021.7 hPa | 0 mm | - | - | - |
| 1777781106 | 13.33° C | 74% | 1021.6 hPa | 0 mm | - | - | - |
| 1777780484 | 13.89° C | 75% | 1021.6 hPa | 0 mm | - | - | - |
| 1777779306 | 13.89° C | 74% | 1021.5 hPa | 0 mm | - | - | - |
| 1777775397 | 13.89° C | 75% | 1021.7 hPa | 0 mm | - | - | - |
| 1777775078 | 13.89° C | 74% | 1021.7 hPa | 0 mm | - | - | - |
| 1777774811 | 14.44° C | 75% | 1021.8 hPa | 0 mm | - | - | - |
| 1777772982 | 14.44° C | 74% | 1021.6 hPa | 0 mm | - | - | - |
* Rain latest hour (hover to see other rain measurements)
** Current wind speed in m/s (hover to see current wind gust speed)